sensor_id;sensor_type;location;lat;lon;timestamp;P1;durP1;ratioP1;P2;durP2;ratioP2
17943;SDS011;9097;47.028;15.444;2023-06-04T00:02:42;2.35;;;2.15;;
17943;SDS011;9097;47.028;15.444;2023-06-04T00:05:45;4.13;;;1.98;;
17943;SDS011;9097;47.028;15.444;2023-06-04T00:08:47;3.78;;;2.38;;
17943;SDS011;9097;47.028;15.444;2023-06-04T00:11:51;2.58;;;1.92;;
17943;SDS011;9097;47.028;15.444;2023-06-04T00:14:53;6.60;;;3.05;;
17943;SDS011;9097;47.028;15.444;2023-06-04T00:17:56;3.85;;;2.28;;
17943;SDS011;9097;47.028;15.444;2023-06-04T00:20:58;5.03;;;2.45;;
17943;SDS011;9097;47.028;15.444;2023-06-04T00:24:01;4.85;;;2.35;;
17943;SDS011;9097;47.028;15.444;2023-06-04T00:27:06;2.60;;;1.80;;
17943;SDS011;9097;47.028;15.444;2023-06-04T00:30:09;1.80;;;1.70;;
17943;SDS011;9097;47.028;15.444;2023-06-04T00:33:12;2.80;;;2.28;;
17943;SDS011;9097;47.028;15.444;2023-06-04T00:36:14;3.83;;;2.20;;
17943;SDS011;9097;47.028;15.444;2023-06-04T00:39:17;3.35;;;1.75;;
17943;SDS011;9097;47.028;15.444;2023-06-04T00:42:21;3.08;;;1.80;;
17943;SDS011;9097;47.028;15.444;2023-06-04T00:45:23;2.47;;;2.13;;
17943;SDS011;9097;47.028;15.444;2023-06-04T00:48:27;3.50;;;2.10;;
17943;SDS011;9097;47.028;15.444;2023-06-04T00:51:31;2.78;;;1.80;;
17943;SDS011;9097;47.028;15.444;2023-06-04T00:54:33;3.55;;;2.40;;
17943;SDS011;9097;47.028;15.444;2023-06-04T00:57:38;2.28;;;2.08;;
17943;SDS011;9097;47.028;15.444;2023-06-04T01:00:41;6.50;;;2.03;;
17943;SDS011;9097;47.028;15.444;2023-06-04T01:03:45;1.98;;;1.77;;
17943;SDS011;9097;47.028;15.444;2023-06-04T01:06:49;3.15;;;2.00;;
17943;SDS011;9097;47.028;15.444;2023-06-04T01:09:52;2.38;;;1.90;;
17943;SDS011;9097;47.028;15.444;2023-06-04T01:12:57;3.08;;;2.03;;
17943;SDS011;9097;47.028;15.444;2023-06-04T01:16:00;3.63;;;2.47;;
17943;SDS011;9097;47.028;15.444;2023-06-04T01:19:05;3.53;;;2.22;;
17943;SDS011;9097;47.028;15.444;2023-06-04T01:22:24;2.75;;;1.95;;
17943;SDS011;9097;47.028;15.444;2023-06-04T01:25:32;3.40;;;2.03;;
17943;SDS011;9097;47.028;15.444;2023-06-04T01:28:36;2.97;;;1.73;;
17943;SDS011;9097;47.028;15.444;2023-06-04T01:31:38;2.47;;;2.25;;
17943;SDS011;9097;47.028;15.444;2023-06-04T01:34:44;4.18;;;2.10;;
17943;SDS011;9097;47.028;15.444;2023-06-04T01:37:47;2.47;;;1.67;;
17943;SDS011;9097;47.028;15.444;2023-06-04T01:40:50;3.10;;;2.00;;
17943;SDS011;9097;47.028;15.444;2023-06-04T01:43:57;2.75;;;2.15;;
17943;SDS011;9097;47.028;15.444;2023-06-04T01:47:00;2.50;;;1.85;;
17943;SDS011;9097;47.028;15.444;2023-06-04T01:50:03;4.32;;;2.45;;
17943;SDS011;9097;47.028;15.444;2023-06-04T01:53:05;2.58;;;1.60;;
17943;SDS011;9097;47.028;15.444;2023-06-04T01:56:08;2.13;;;1.48;;
17943;SDS011;9097;47.028;15.444;2023-06-04T01:59:13;3.58;;;2.00;;
17943;SDS011;9097;47.028;15.444;2023-06-04T02:02:16;2.63;;;1.80;;
17943;SDS011;9097;47.028;15.444;2023-06-04T02:05:18;4.30;;;2.28;;
17943;SDS011;9097;47.028;15.444;2023-06-04T02:08:21;4.72;;;2.53;;
17943;SDS011;9097;47.028;15.444;2023-06-04T02:11:25;2.58;;;1.85;;
17943;SDS011;9097;47.028;15.444;2023-06-04T02:14:29;2.65;;;2.03;;
17943;SDS011;9097;47.028;15.444;2023-06-04T02:17:31;2.53;;;1.77;;
17943;SDS011;9097;47.028;15.444;2023-06-04T02:20:43;9.07;;;2.15;;
17943;SDS011;9097;47.028;15.444;2023-06-04T02:23:45;6.43;;;2.75;;
17943;SDS011;9097;47.028;15.444;2023-06-04T02:26:48;3.80;;;2.78;;
17943;SDS011;9097;47.028;15.444;2023-06-04T02:29:52;3.70;;;2.20;;
17943;SDS011;9097;47.028;15.444;2023-06-04T02:32:54;2.35;;;1.98;;
17943;SDS011;9097;47.028;15.444;2023-06-04T02:35:57;4.28;;;1.90;;
17943;SDS011;9097;47.028;15.444;2023-06-04T02:39:00;2.47;;;1.92;;
17943;SDS011;9097;47.028;15.444;2023-06-04T02:42:03;3.05;;;1.40;;
17943;SDS011;9097;47.028;15.444;2023-06-04T02:45:09;3.03;;;1.95;;
17943;SDS011;9097;47.028;15.444;2023-06-04T02:48:14;5.72;;;2.25;;
17943;SDS011;9097;47.028;15.444;2023-06-04T02:51:16;3.33;;;2.20;;
17943;SDS011;9097;47.028;15.444;2023-06-04T02:54:19;4.65;;;2.33;;
17943;SDS011;9097;47.028;15.444;2023-06-04T02:57:21;4.75;;;2.92;;
17943;SDS011;9097;47.028;15.444;2023-06-04T03:00:25;3.30;;;2.03;;
17943;SDS011;9097;47.028;15.444;2023-06-04T03:03:28;2.20;;;2.00;;
17943;SDS011;9097;47.028;15.444;2023-06-04T03:06:31;2.97;;;1.75;;
17943;SDS011;9097;47.028;15.444;2023-06-04T03:09:34;6.82;;;2.08;;
17943;SDS011;9097;47.028;15.444;2023-06-04T03:12:37;2.97;;;2.05;;
17943;SDS011;9097;47.028;15.444;2023-06-04T03:15:41;6.35;;;2.45;;
17943;SDS011;9097;47.028;15.444;2023-06-04T03:18:44;4.68;;;2.25;;
17943;SDS011;9097;47.028;15.444;2023-06-04T03:21:47;3.78;;;2.58;;
17943;SDS011;9097;47.028;15.444;2023-06-04T03:24:52;4.32;;;2.38;;
17943;SDS011;9097;47.028;15.444;2023-06-04T03:27:54;7.40;;;2.60;;
17943;SDS011;9097;47.028;15.444;2023-06-04T03:30:58;2.88;;;1.98;;
17943;SDS011;9097;47.028;15.444;2023-06-04T03:34:01;5.40;;;1.95;;
17943;SDS011;9097;47.028;15.444;2023-06-04T03:37:03;3.70;;;2.25;;
17943;SDS011;9097;47.028;15.444;2023-06-04T03:40:06;3.22;;;2.35;;
17943;SDS011;9097;47.028;15.444;2023-06-04T03:43:09;5.47;;;2.63;;
17943;SDS011;9097;47.028;15.444;2023-06-04T03:46:13;4.82;;;1.83;;
17943;SDS011;9097;47.028;15.444;2023-06-04T03:49:15;5.00;;;2.80;;
17943;SDS011;9097;47.028;15.444;2023-06-04T03:52:19;3.47;;;2.50;;
17943;SDS011;9097;47.028;15.444;2023-06-04T03:55:22;8.48;;;3.38;;
17943;SDS011;9097;47.028;15.444;2023-06-04T03:58:24;4.45;;;2.30;;
17943;SDS011;9097;47.028;15.444;2023-06-04T04:01:30;3.13;;;2.38;;
17943;SDS011;9097;47.028;15.444;2023-06-04T04:04:32;2.72;;;2.33;;
17943;SDS011;9097;47.028;15.444;2023-06-04T04:07:35;3.25;;;2.53;;
17943;SDS011;9097;47.028;15.444;2023-06-04T04:10:37;3.83;;;2.30;;
17943;SDS011;9097;47.028;15.444;2023-06-04T04:13:40;4.00;;;2.45;;
17943;SDS011;9097;47.028;15.444;2023-06-04T04:16:44;2.80;;;2.10;;
17943;SDS011;9097;47.028;15.444;2023-06-04T04:19:47;5.50;;;3.08;;
17943;SDS011;9097;47.028;15.444;2023-06-04T04:22:49;4.05;;;1.77;;
17943;SDS011;9097;47.028;15.444;2023-06-04T04:25:52;2.47;;;2.00;;
17943;SDS011;9097;47.028;15.444;2023-06-04T04:28:56;4.75;;;2.38;;
17943;SDS011;9097;47.028;15.444;2023-06-04T04:32:01;2.38;;;2.00;;
17943;SDS011;9097;47.028;15.444;2023-06-04T04:35:10;3.90;;;2.13;;
17943;SDS011;9097;47.028;15.444;2023-06-04T04:38:12;3.08;;;1.98;;
17943;SDS011;9097;47.028;15.444;2023-06-04T04:41:17;4.63;;;2.45;;
17943;SDS011;9097;47.028;15.444;2023-06-04T04:44:21;3.15;;;2.05;;
17943;SDS011;9097;47.028;15.444;2023-06-04T04:47:24;3.58;;;2.40;;
17943;SDS011;9097;47.028;15.444;2023-06-04T04:50:27;5.00;;;2.75;;
17943;SDS011;9097;47.028;15.444;2023-06-04T04:53:31;4.07;;;1.95;;
17943;SDS011;9097;47.028;15.444;2023-06-04T04:56:34;4.97;;;2.30;;
17943;SDS011;9097;47.028;15.444;2023-06-04T04:59:36;1.73;;;1.60;;
17943;SDS011;9097;47.028;15.444;2023-06-04T05:02:40;2.58;;;1.83;;
17943;SDS011;9097;47.028;15.444;2023-06-04T05:05:43;6.72;;;3.22;;
17943;SDS011;9097;47.028;15.444;2023-06-04T05:08:45;3.10;;;2.33;;
17943;SDS011;9097;47.028;15.444;2023-06-04T05:11:48;4.85;;;2.63;;
17943;SDS011;9097;47.028;15.444;2023-06-04T05:14:51;7.28;;;2.40;;
17943;SDS011;9097;47.028;15.444;2023-06-04T05:17:55;3.55;;;1.88;;
17943;SDS011;9097;47.028;15.444;2023-06-04T05:20:58;3.65;;;2.13;;
17943;SDS011;9097;47.028;15.444;2023-06-04T05:24:02;5.80;;;2.75;;
17943;SDS011;9097;47.028;15.444;2023-06-04T05:27:05;5.00;;;2.08;;
17943;SDS011;9097;47.028;15.444;2023-06-04T05:30:10;3.80;;;1.58;;
17943;SDS011;9097;47.028;15.444;2023-06-04T05:33:14;4.50;;;2.13;;
17943;SDS011;9097;47.028;15.444;2023-06-04T05:36:19;4.90;;;2.25;;
17943;SDS011;9097;47.028;15.444;2023-06-04T05:39:21;5.85;;;3.30;;
17943;SDS011;9097;47.028;15.444;2023-06-04T05:42:24;3.40;;;2.35;;
17943;SDS011;9097;47.028;15.444;2023-06-04T05:45:27;3.33;;;2.30;;
17943;SDS011;9097;47.028;15.444;2023-06-04T05:48:31;4.43;;;2.13;;
17943;SDS011;9097;47.028;15.444;2023-06-04T05:51:33;3.63;;;2.13;;
17943;SDS011;9097;47.028;15.444;2023-06-04T05:54:36;3.05;;;2.15;;
17943;SDS011;9097;47.028;15.444;2023-06-04T05:57:39;3.63;;;2.45;;
17943;SDS011;9097;47.028;15.444;2023-06-04T06:00:41;4.50;;;2.80;;
17943;SDS011;9097;47.028;15.444;2023-06-04T06:03:45;2.70;;;2.15;;
17943;SDS011;9097;47.028;15.444;2023-06-04T06:06:48;3.13;;;2.10;;
17943;SDS011;9097;47.028;15.444;2023-06-04T06:09:50;3.70;;;2.30;;
17943;SDS011;9097;47.028;15.444;2023-06-04T06:12:53;3.28;;;2.28;;
17943;SDS011;9097;47.028;15.444;2023-06-04T06:15:55;7.05;;;2.60;;
17943;SDS011;9097;47.028;15.444;2023-06-04T06:18:59;6.10;;;2.30;;
17943;SDS011;9097;47.028;15.444;2023-06-04T06:22:02;3.08;;;2.03;;
17943;SDS011;9097;47.028;15.444;2023-06-04T06:25:05;3.65;;;2.25;;
17943;SDS011;9097;47.028;15.444;2023-06-04T06:28:08;2.47;;;1.88;;
17943;SDS011;9097;47.028;15.444;2023-06-04T06:31:10;2.95;;;2.22;;
17943;SDS011;9097;47.028;15.444;2023-06-04T06:34:14;2.05;;;1.85;;
17943;SDS011;9097;47.028;15.444;2023-06-04T06:37:17;2.55;;;2.10;;
17943;SDS011;9097;47.028;15.444;2023-06-04T06:40:19;3.03;;;1.83;;
17943;SDS011;9097;47.028;15.444;2023-06-04T06:43:22;2.08;;;1.88;;
17943;SDS011;9097;47.028;15.444;2023-06-04T06:46:24;3.20;;;1.90;;
17943;SDS011;9097;47.028;15.444;2023-06-04T06:49:29;2.42;;;1.90;;
17943;SDS011;9097;47.028;15.444;2023-06-04T06:52:31;6.28;;;2.00;;
17943;SDS011;9097;47.028;15.444;2023-06-04T06:55:34;3.15;;;1.92;;
17943;SDS011;9097;47.028;15.444;2023-06-04T06:58:36;2.08;;;1.83;;
17943;SDS011;9097;47.028;15.444;2023-06-04T07:01:39;4.05;;;1.98;;
17943;SDS011;9097;47.028;15.444;2023-06-04T07:04:43;1.83;;;1.52;;
17943;SDS011;9097;47.028;15.444;2023-06-04T07:07:45;2.92;;;1.73;;
17943;SDS011;9097;47.028;15.444;2023-06-04T07:10:48;4.70;;;1.85;;
17943;SDS011;9097;47.028;15.444;2023-06-04T07:13:50;1.40;;;1.20;;
17943;SDS011;9097;47.028;15.444;2023-06-04T07:16:52;2.55;;;1.58;;
17943;SDS011;9097;47.028;15.444;2023-06-04T07:19:56;1.85;;;1.38;;
17943;SDS011;9097;47.028;15.444;2023-06-04T07:22:59;2.38;;;2.17;;
17943;SDS011;9097;47.028;15.444;2023-06-04T07:26:01;3.90;;;1.98;;
17943;SDS011;9097;47.028;15.444;2023-06-04T07:29:04;2.25;;;1.80;;
17943;SDS011;9097;47.028;15.444;2023-06-04T07:32:07;3.35;;;1.80;;
17943;SDS011;9097;47.028;15.444;2023-06-04T07:35:10;4.15;;;2.17;;
17943;SDS011;9097;47.028;15.444;2023-06-04T07:38:13;3.53;;;2.35;;
17943;SDS011;9097;47.028;15.444;2023-06-04T07:41:16;3.70;;;1.73;;
17943;SDS011;9097;47.028;15.444;2023-06-04T07:44:19;1.95;;;1.15;;
17943;SDS011;9097;47.028;15.444;2023-06-04T07:47:21;2.55;;;1.75;;
17943;SDS011;9097;47.028;15.444;2023-06-04T07:50:25;2.30;;;1.83;;
17943;SDS011;9097;47.028;15.444;2023-06-04T07:53:28;2.33;;;1.50;;
17943;SDS011;9097;47.028;15.444;2023-06-04T07:56:30;5.80;;;1.75;;
17943;SDS011;9097;47.028;15.444;2023-06-04T07:59:33;4.93;;;1.70;;
17943;SDS011;9097;47.028;15.444;2023-06-04T08:02:37;3.65;;;1.98;;
17943;SDS011;9097;47.028;15.444;2023-06-04T08:05:41;1.42;;;1.25;;
17943;SDS011;9097;47.028;15.444;2023-06-04T08:08:44;5.53;;;1.65;;
17943;SDS011;9097;47.028;15.444;2023-06-04T08:11:48;1.67;;;1.55;;
17943;SDS011;9097;47.028;15.444;2023-06-04T08:14:51;2.28;;;1.27;;
17943;SDS011;9097;47.028;15.444;2023-06-04T08:17:57;2.20;;;1.13;;
17943;SDS011;9097;47.028;15.444;2023-06-04T08:21:01;1.85;;;1.10;;
17943;SDS011;9097;47.028;15.444;2023-06-04T08:24:04;2.22;;;1.55;;
17943;SDS011;9097;47.028;15.444;2023-06-04T08:27:07;2.38;;;1.85;;
17943;SDS011;9097;47.028;15.444;2023-06-04T08:30:10;4.50;;;2.67;;
17943;SDS011;9097;47.028;15.444;2023-06-04T08:33:12;3.17;;;1.90;;
17943;SDS011;9097;47.028;15.444;2023-06-04T08:36:16;2.30;;;1.88;;
17943;SDS011;9097;47.028;15.444;2023-06-04T08:39:19;2.70;;;1.98;;
17943;SDS011;9097;47.028;15.444;2023-06-04T08:42:26;2.22;;;1.63;;
17943;SDS011;9097;47.028;15.444;2023-06-04T08:45:30;2.75;;;1.60;;
17943;SDS011;9097;47.028;15.444;2023-06-04T08:48:35;4.45;;;1.85;;
17943;SDS011;9097;47.028;15.444;2023-06-04T08:51:39;3.25;;;2.03;;
17943;SDS011;9097;47.028;15.444;2023-06-04T08:54:42;1.95;;;1.40;;
17943;SDS011;9097;47.028;15.444;2023-06-04T08:57:47;2.70;;;1.98;;
17943;SDS011;9097;47.028;15.444;2023-06-04T09:00:50;2.63;;;2.35;;
17943;SDS011;9097;47.028;15.444;2023-06-04T09:03:52;1.38;;;1.27;;
17943;SDS011;9097;47.028;15.444;2023-06-04T09:06:56;2.47;;;1.98;;
17943;SDS011;9097;47.028;15.444;2023-06-04T09:10:04;1.95;;;1.75;;
17943;SDS011;9097;47.028;15.444;2023-06-04T09:13:07;3.05;;;1.55;;
17943;SDS011;9097;47.028;15.444;2023-06-04T09:16:10;2.13;;;1.60;;
17943;SDS011;9097;47.028;15.444;2023-06-04T09:19:13;1.70;;;1.35;;
17943;SDS011;9097;47.028;15.444;2023-06-04T09:22:17;2.70;;;1.83;;
17943;SDS011;9097;47.028;15.444;2023-06-04T09:25:20;1.67;;;1.58;;
17943;SDS011;9097;47.028;15.444;2023-06-04T09:28:25;2.53;;;1.85;;
17943;SDS011;9097;47.028;15.444;2023-06-04T09:31:32;3.08;;;1.77;;
17943;SDS011;9097;47.028;15.444;2023-06-04T09:34:37;3.50;;;2.45;;
17943;SDS011;9097;47.028;15.444;2023-06-04T09:37:52;3.35;;;1.83;;
17943;SDS011;9097;47.028;15.444;2023-06-04T09:40:55;2.70;;;2.33;;
17943;SDS011;9097;47.028;15.444;2023-06-04T09:44:01;2.83;;;1.23;;
17943;SDS011;9097;47.028;15.444;2023-06-04T09:47:04;2.17;;;1.90;;
17943;SDS011;9097;47.028;15.444;2023-06-04T09:50:09;2.00;;;1.55;;
17943;SDS011;9097;47.028;15.444;2023-06-04T09:53:14;2.45;;;1.77;;
17943;SDS011;9097;47.028;15.444;2023-06-04T09:56:17;2.45;;;1.63;;
17943;SDS011;9097;47.028;15.444;2023-06-04T09:59:19;2.63;;;2.15;;
17943;SDS011;9097;47.028;15.444;2023-06-04T10:02:22;2.25;;;1.50;;
17943;SDS011;9097;47.028;15.444;2023-06-04T10:05:25;3.25;;;1.90;;
17943;SDS011;9097;47.028;15.444;2023-06-04T10:08:31;3.50;;;1.67;;
17943;SDS011;9097;47.028;15.444;2023-06-04T10:11:34;3.60;;;2.08;;
17943;SDS011;9097;47.028;15.444;2023-06-04T10:14:38;5.15;;;1.75;;
17943;SDS011;9097;47.028;15.444;2023-06-04T10:17:43;2.33;;;1.48;;
17943;SDS011;9097;47.028;15.444;2023-06-04T10:20:46;2.60;;;1.20;;
17943;SDS011;9097;47.028;15.444;2023-06-04T10:23:51;3.67;;;1.98;;
17943;SDS011;9097;47.028;15.444;2023-06-04T10:26:54;2.20;;;1.40;;
17943;SDS011;9097;47.028;15.444;2023-06-04T10:29:57;1.42;;;1.13;;
17943;SDS011;9097;47.028;15.444;2023-06-04T10:32:59;1.55;;;1.42;;
17943;SDS011;9097;47.028;15.444;2023-06-04T10:36:15;2.90;;;1.75;;
17943;SDS011;9097;47.028;15.444;2023-06-04T10:39:26;2.33;;;1.40;;
17943;SDS011;9097;47.028;15.444;2023-06-04T10:42:36;3.53;;;1.77;;
17943;SDS011;9097;47.028;15.444;2023-06-04T10:45:39;1.88;;;1.67;;
17943;SDS011;9097;47.028;15.444;2023-06-04T10:48:46;1.83;;;1.67;;
17943;SDS011;9097;47.028;15.444;2023-06-04T10:51:48;2.50;;;1.77;;
17943;SDS011;9097;47.028;15.444;2023-06-04T10:55:02;2.42;;;1.45;;
17943;SDS011;9097;47.028;15.444;2023-06-04T10:58:05;2.05;;;1.42;;
17943;SDS011;9097;47.028;15.444;2023-06-04T11:01:08;4.20;;;1.88;;
17943;SDS011;9097;47.028;15.444;2023-06-04T11:04:20;3.05;;;1.92;;
17943;SDS011;9097;47.028;15.444;2023-06-04T11:07:22;2.63;;;1.70;;
17943;SDS011;9097;47.028;15.444;2023-06-04T11:10:30;3.42;;;1.52;;
17943;SDS011;9097;47.028;15.444;2023-06-04T11:13:34;2.47;;;1.40;;
17943;SDS011;9097;47.028;15.444;2023-06-04T11:16:37;3.08;;;1.92;;
17943;SDS011;9097;47.028;15.444;2023-06-04T11:19:40;3.40;;;2.53;;
17943;SDS011;9097;47.028;15.444;2023-06-04T11:22:42;2.53;;;1.92;;
17943;SDS011;9097;47.028;15.444;2023-06-04T11:25:46;4.15;;;2.47;;
17943;SDS011;9097;47.028;15.444;2023-06-04T11:28:54;2.22;;;1.88;;
17943;SDS011;9097;47.028;15.444;2023-06-04T11:31:57;2.90;;;1.60;;
17943;SDS011;9097;47.028;15.444;2023-06-04T11:35:03;2.97;;;1.88;;
17943;SDS011;9097;47.028;15.444;2023-06-04T11:38:06;2.50;;;1.67;;
17943;SDS011;9097;47.028;15.444;2023-06-04T11:41:10;2.55;;;1.58;;
17943;SDS011;9097;47.028;15.444;2023-06-04T11:44:13;2.10;;;1.88;;
17943;SDS011;9097;47.028;15.444;2023-06-04T11:47:15;3.10;;;1.83;;
17943;SDS011;9097;47.028;15.444;2023-06-04T11:50:18;2.92;;;2.03;;
17943;SDS011;9097;47.028;15.444;2023-06-04T11:53:20;4.53;;;2.35;;
17943;SDS011;9097;47.028;15.444;2023-06-04T11:56:24;3.28;;;1.90;;
17943;SDS011;9097;47.028;15.444;2023-06-04T11:59:27;2.17;;;1.70;;
17943;SDS011;9097;47.028;15.444;2023-06-04T12:02:30;2.50;;;1.92;;
17943;SDS011;9097;47.028;15.444;2023-06-04T12:05:33;4.63;;;2.17;;
17943;SDS011;9097;47.028;15.444;2023-06-04T12:08:43;4.75;;;1.90;;
17943;SDS011;9097;47.028;15.444;2023-06-04T12:11:48;5.38;;;1.90;;
17943;SDS011;9097;47.028;15.444;2023-06-04T12:14:57;2.85;;;1.73;;
17943;SDS011;9097;47.028;15.444;2023-06-04T12:17:59;2.60;;;2.35;;
17943;SDS011;9097;47.028;15.444;2023-06-04T12:21:04;3.50;;;2.13;;
17943;SDS011;9097;47.028;15.444;2023-06-04T12:24:07;3.65;;;2.10;;
17943;SDS011;9097;47.028;15.444;2023-06-04T12:27:11;1.48;;;1.20;;
17943;SDS011;9097;47.028;15.444;2023-06-04T12:30:14;4.05;;;1.65;;
17943;SDS011;9097;47.028;15.444;2023-06-04T12:33:16;5.40;;;2.08;;
17943;SDS011;9097;47.028;15.444;2023-06-04T12:36:19;5.85;;;1.98;;
17943;SDS011;9097;47.028;15.444;2023-06-04T12:39:21;3.45;;;1.98;;
17943;SDS011;9097;47.028;15.444;2023-06-04T12:42:25;3.85;;;2.28;;
17943;SDS011;9097;47.028;15.444;2023-06-04T12:45:29;3.50;;;2.58;;
17943;SDS011;9097;47.028;15.444;2023-06-04T12:48:31;2.15;;;1.60;;
17943;SDS011;9097;47.028;15.444;2023-06-04T12:51:34;6.22;;;2.22;;
17943;SDS011;9097;47.028;15.444;2023-06-04T12:54:36;3.00;;;1.85;;
17943;SDS011;9097;47.028;15.444;2023-06-04T12:57:40;7.25;;;2.67;;
17943;SDS011;9097;47.028;15.444;2023-06-04T13:00:44;1.48;;;1.30;;
17943;SDS011;9097;47.028;15.444;2023-06-04T13:03:47;2.83;;;1.88;;
17943;SDS011;9097;47.028;15.444;2023-06-04T13:06:49;4.45;;;2.10;;
17943;SDS011;9097;47.028;15.444;2023-06-04T13:09:55;3.13;;;2.22;;
17943;SDS011;9097;47.028;15.444;2023-06-04T13:12:59;3.05;;;1.70;;
17943;SDS011;9097;47.028;15.444;2023-06-04T13:16:01;2.53;;;1.90;;
17943;SDS011;9097;47.028;15.444;2023-06-04T13:19:05;2.65;;;2.13;;
17943;SDS011;9097;47.028;15.444;2023-06-04T13:22:08;1.70;;;1.60;;
17943;SDS011;9097;47.028;15.444;2023-06-04T13:25:10;3.53;;;2.15;;
17943;SDS011;9097;47.028;15.444;2023-06-04T13:28:14;4.85;;;2.72;;
17943;SDS011;9097;47.028;15.444;2023-06-04T13:31:17;7.28;;;3.33;;
17943;SDS011;9097;47.028;15.444;2023-06-04T13:34:20;4.13;;;2.67;;
17943;SDS011;9097;47.028;15.444;2023-06-04T13:37:22;4.53;;;2.95;;
17943;SDS011;9097;47.028;15.444;2023-06-04T13:40:25;6.00;;;2.28;;
17943;SDS011;9097;47.028;15.444;2023-06-04T13:43:29;3.47;;;2.60;;
17943;SDS011;9097;47.028;15.444;2023-06-04T13:46:31;3.15;;;2.05;;
17943;SDS011;9097;47.028;15.444;2023-06-04T13:49:34;10.82;;;2.08;;
17943;SDS011;9097;47.028;15.444;2023-06-04T13:52:37;6.63;;;3.20;;
17943;SDS011;9097;47.028;15.444;2023-06-04T13:55:39;5.03;;;2.70;;
17943;SDS011;9097;47.028;15.444;2023-06-04T13:58:44;4.47;;;2.67;;
17943;SDS011;9097;47.028;15.444;2023-06-04T14:01:46;3.35;;;2.60;;
17943;SDS011;9097;47.028;15.444;2023-06-04T14:04:49;4.60;;;2.55;;
17943;SDS011;9097;47.028;15.444;2023-06-04T14:07:51;5.55;;;3.20;;
17943;SDS011;9097;47.028;15.444;2023-06-04T14:10:54;6.30;;;3.28;;
17943;SDS011;9097;47.028;15.444;2023-06-04T14:13:59;7.63;;;3.38;;
17943;SDS011;9097;47.028;15.444;2023-06-04T14:17:01;6.68;;;3.83;;
17943;SDS011;9097;47.028;15.444;2023-06-04T14:20:04;7.03;;;3.47;;
17943;SDS011;9097;47.028;15.444;2023-06-04T14:23:08;3.30;;;2.33;;
17943;SDS011;9097;47.028;15.444;2023-06-04T14:26:12;3.45;;;1.80;;
17943;SDS011;9097;47.028;15.444;2023-06-04T14:29:19;4.10;;;2.35;;
17943;SDS011;9097;47.028;15.444;2023-06-04T14:32:22;2.47;;;1.60;;
17943;SDS011;9097;47.028;15.444;2023-06-04T14:35:25;2.38;;;1.17;;
17943;SDS011;9097;47.028;15.444;2023-06-04T14:38:27;1.92;;;0.80;;
17943;SDS011;9097;47.028;15.444;2023-06-04T14:41:30;2.67;;;1.05;;
17943;SDS011;9097;47.028;15.444;2023-06-04T14:44:33;1.70;;;1.08;;
17943;SDS011;9097;47.028;15.444;2023-06-04T14:47:36;1.05;;;0.70;;
17943;SDS011;9097;47.028;15.444;2023-06-04T14:50:38;1.80;;;1.10;;
17943;SDS011;9097;47.028;15.444;2023-06-04T14:53:41;1.45;;;1.05;;
17943;SDS011;9097;47.028;15.444;2023-06-04T14:56:44;1.83;;;1.27;;
17943;SDS011;9097;47.028;15.444;2023-06-04T14:59:49;1.55;;;1.08;;
17943;SDS011;9097;47.028;15.444;2023-06-04T15:02:51;3.42;;;1.05;;
17943;SDS011;9097;47.028;15.444;2023-06-04T15:05:54;1.15;;;0.73;;
17943;SDS011;9097;47.028;15.444;2023-06-04T15:08:56;0.93;;;0.85;;
17943;SDS011;9097;47.028;15.444;2023-06-04T15:11:59;1.00;;;0.82;;
17943;SDS011;9097;47.028;15.444;2023-06-04T15:15:04;0.80;;;0.80;;
17943;SDS011;9097;47.028;15.444;2023-06-04T15:18:07;0.88;;;0.70;;
17943;SDS011;9097;47.028;15.444;2023-06-04T15:21:09;0.95;;;0.60;;
17943;SDS011;9097;47.028;15.444;2023-06-04T15:24:12;3.75;;;1.05;;
17943;SDS011;9097;47.028;15.444;2023-06-04T15:27:14;0.85;;;0.63;;
17943;SDS011;9097;47.028;15.444;2023-06-04T15:30:20;2.42;;;0.90;;
17943;SDS011;9097;47.028;15.444;2023-06-04T15:33:25;1.23;;;0.82;;
17943;SDS011;9097;47.028;15.444;2023-06-04T15:36:28;4.00;;;0.70;;
17943;SDS011;9097;47.028;15.444;2023-06-04T15:39:30;2.70;;;0.65;;
17943;SDS011;9097;47.028;15.444;2023-06-04T15:42:33;1.17;;;0.68;;
17943;SDS011;9097;47.028;15.444;2023-06-04T15:45:36;0.93;;;0.80;;
17943;SDS011;9097;47.028;15.444;2023-06-04T15:48:39;0.75;;;0.43;;
17943;SDS011;9097;47.028;15.444;2023-06-04T15:51:42;0.80;;;0.80;;
17943;SDS011;9097;47.028;15.444;2023-06-04T15:54:44;2.53;;;1.10;;
17943;SDS011;9097;47.028;15.444;2023-06-04T15:57:47;1.25;;;0.43;;
17943;SDS011;9097;47.028;15.444;2023-06-04T16:00:51;1.98;;;0.55;;
17943;SDS011;9097;47.028;15.444;2023-06-04T16:03:53;0.43;;;0.40;;
17943;SDS011;9097;47.028;15.444;2023-06-04T16:06:56;0.98;;;0.73;;
17943;SDS011;9097;47.028;15.444;2023-06-04T16:09:58;1.70;;;0.73;;
17943;SDS011;9097;47.028;15.444;2023-06-04T16:13:00;0.47;;;0.47;;
17943;SDS011;9097;47.028;15.444;2023-06-04T16:16:04;1.17;;;0.70;;
17943;SDS011;9097;47.028;15.444;2023-06-04T16:19:07;1.10;;;0.98;;
17943;SDS011;9097;47.028;15.444;2023-06-04T16:22:10;0.70;;;0.60;;
17943;SDS011;9097;47.028;15.444;2023-06-04T16:25:14;0.77;;;0.60;;
17943;SDS011;9097;47.028;15.444;2023-06-04T16:28:20;1.27;;;0.98;;
17943;SDS011;9097;47.028;15.444;2023-06-04T16:31:28;0.93;;;0.88;;
17943;SDS011;9097;47.028;15.444;2023-06-04T16:34:33;1.50;;;1.15;;
17943;SDS011;9097;47.028;15.444;2023-06-04T16:37:37;1.17;;;0.82;;
17943;SDS011;9097;47.028;15.444;2023-06-04T16:40:41;1.30;;;1.20;;
17943;SDS011;9097;47.028;15.444;2023-06-04T16:43:47;2.03;;;1.10;;
17943;SDS011;9097;47.028;15.444;2023-06-04T16:46:54;1.33;;;0.88;;
17943;SDS011;9097;47.028;15.444;2023-06-04T16:49:58;2.00;;;0.70;;
17943;SDS011;9097;47.028;15.444;2023-06-04T16:53:06;4.05;;;1.02;;
17943;SDS011;9097;47.028;15.444;2023-06-04T16:56:12;0.40;;;0.40;;
17943;SDS011;9097;47.028;15.444;2023-06-04T16:59:22;0.73;;;0.63;;
17943;SDS011;9097;47.028;15.444;2023-06-04T17:02:31;1.83;;;0.80;;
17943;SDS011;9097;47.028;15.444;2023-06-04T17:05:37;2.05;;;1.13;;
17943;SDS011;9097;47.028;15.444;2023-06-04T17:08:58;1.23;;;0.63;;
17943;SDS011;9097;47.028;15.444;2023-06-04T17:12:06;0.40;;;0.40;;
17943;SDS011;9097;47.028;15.444;2023-06-04T17:15:11;1.85;;;1.02;;
17943;SDS011;9097;47.028;15.444;2023-06-04T17:18:17;1.10;;;0.85;;
17943;SDS011;9097;47.028;15.444;2023-06-04T17:21:24;0.73;;;0.50;;
17943;SDS011;9097;47.028;15.444;2023-06-04T17:24:29;0.45;;;0.45;;
17943;SDS011;9097;47.028;15.444;2023-06-04T17:27:33;0.98;;;0.85;;
17943;SDS011;9097;47.028;15.444;2023-06-04T17:30:37;1.65;;;1.25;;
17943;SDS011;9097;47.028;15.444;2023-06-04T17:33:41;0.70;;;0.60;;
17943;SDS011;9097;47.028;15.444;2023-06-04T17:36:45;1.38;;;0.63;;
17943;SDS011;9097;47.028;15.444;2023-06-04T17:39:48;0.63;;;0.63;;
17943;SDS011;9097;47.028;15.444;2023-06-04T17:42:54;1.48;;;1.00;;
17943;SDS011;9097;47.028;15.444;2023-06-04T17:45:56;0.93;;;0.63;;
17943;SDS011;9097;47.028;15.444;2023-06-04T17:49:01;0.73;;;0.50;;
17943;SDS011;9097;47.028;15.444;2023-06-04T17:52:09;0.93;;;0.68;;
17943;SDS011;9097;47.028;15.444;2023-06-04T17:55:12;1.98;;;0.40;;
17943;SDS011;9097;47.028;15.444;2023-06-04T17:58:15;1.17;;;1.08;;
17943;SDS011;9097;47.028;15.444;2023-06-04T18:01:20;1.23;;;1.10;;
17943;SDS011;9097;47.028;15.444;2023-06-04T18:04:23;2.80;;;1.02;;
17943;SDS011;9097;47.028;15.444;2023-06-04T18:07:26;0.77;;;0.50;;
17943;SDS011;9097;47.028;15.444;2023-06-04T18:10:29;3.22;;;1.05;;
17943;SDS011;9097;47.028;15.444;2023-06-04T18:13:33;2.20;;;1.13;;
17943;SDS011;9097;47.028;15.444;2023-06-04T18:16:36;1.40;;;1.15;;
17943;SDS011;9097;47.028;15.444;2023-06-04T18:19:40;2.25;;;1.52;;
17943;SDS011;9097;47.028;15.444;2023-06-04T18:22:43;1.80;;;1.30;;
17943;SDS011;9097;47.028;15.444;2023-06-04T18:25:45;1.50;;;1.27;;
17943;SDS011;9097;47.028;15.444;2023-06-04T18:28:48;1.00;;;0.90;;